Tropical Cyclones
[Index]
Main Index Home Page Stock Weather Photos Extreme Storms Discussion Storm News and Storm Chasing Reports Tropical Cyclones / Hurricanes / Typhoons Weather Data and Links Wild Fires / Bushfires Weather Observation Techniques Weather Picture Catalogue Tornado Pictures and Reports Stock Video Footage and DVDs for sale
Season 1998-1999 Tropical Cyclone BILLY Track Map
Season 1998-1999 Summaries: [BoM-AU] [JTWC-AU] [JTWC-SIO] [JTWC-SPAC] [JTWC-SH]
<<- Previous TC | JTWC 1998-1999 Season | Next TC ->>

click for intensity scale information  Lat/long Grid: Show Hide

 Date Labels: Show Hide

Joint Typhoon Warning Centre Cyclone Data

Name: BILLY

01 Dec 1998 12:00 UTC to 07 Dec 1998 06:00 UTC

    date/time    lat    long     hPa   cat  kts
1998-12-01 12   13.2   120.1                  20          
1998-12-01 18   13.9   120.1                  25          
1998-12-02 00   14.9   120.1                  25          
1998-12-02 06   15.6   120.0                  25          
1998-12-02 12   16.1   119.7                  25          
1998-12-02 18   16.6   119.2                  30          
1998-12-03 00   17.0   118.7                  35          
1998-12-03 06   17.3   118.1            1     40          
1998-12-03 12   17.5   117.7            1     45          
1998-12-03 18   17.8   117.3            2     55          
1998-12-04 00   18.0   116.9            2     65          
1998-12-04 06   18.2   116.6            2     65          
1998-12-04 12   18.5   116.2            2     65          
1998-12-04 18   18.9   115.8            2     60          
1998-12-05 00   19.3   115.5            2     60          
1998-12-05 06   19.6   115.3            1     50          
1998-12-05 12   20.1   115.1            1     45          
1998-12-05 18   20.5   114.9            1     45          
1998-12-06 00   21.0   114.9            1     40          
1998-12-06 06   21.6   115.0                  35          
1998-12-06 12   22.5   115.5                  25          
1998-12-06 18   23.2   115.8                  25          
1998-12-07 00   23.9   116.5                  20          
1998-12-07 06   24.6   117.7                  20          
Winds are 1-min average.

Tropical cyclone tracks developed by Michael Bath using data from the Joint Typhoon Warning Centre Best Tracks and Google Maps.


[Australian Severe Weather index] [Copyright Notice] [Email Contacts] [Search This Site] [Privacy Policy]
Document: tropical_cyclone_billy.htm Updated: 18 September 2016